sensor_id;sensor_type;location;lat;lon;timestamp;pressure;altitude;pressure_sealevel;temperature;humidity
71476;BME280;59286;59.274;17.974;2022-12-29T00:01:37;99843.22;;;2.04;97.85
71476;BME280;59286;59.274;17.974;2022-12-29T00:04:03;99846.06;;;2.02;97.88
71476;BME280;59286;59.274;17.974;2022-12-29T00:06:29;99835.72;;;2.02;98.18
71476;BME280;59286;59.274;17.974;2022-12-29T00:08:54;99838.56;;;2.06;97.77
71476;BME280;59286;59.274;17.974;2022-12-29T00:11:25;99843.50;;;2.12;97.92
71476;BME280;59286;59.274;17.974;2022-12-29T00:13:53;99850.47;;;2.12;97.72
71476;BME280;59286;59.274;17.974;2022-12-29T00:16:43;99844.56;;;2.16;97.35
71476;BME280;59286;59.274;17.974;2022-12-29T00:19:09;99835.50;;;2.14;97.42
71476;BME280;59286;59.274;17.974;2022-12-29T00:21:55;99836.50;;;2.13;96.59
71476;BME280;59286;59.274;17.974;2022-12-29T00:24:39;99843.22;;;2.04;97.01
71476;BME280;59286;59.274;17.974;2022-12-29T00:27:23;99843.22;;;1.98;97.47
71476;BME280;59286;59.274;17.974;2022-12-29T00:30:11;99836.50;;;2.03;97.79
71476;BME280;59286;59.274;17.974;2022-12-29T00:32:55;99825.91;;;1.99;97.28
71476;BME280;59286;59.274;17.974;2022-12-29T00:35:45;99813.75;;;1.89;96.94
71476;BME280;59286;59.274;17.974;2022-12-29T00:38:11;99816.59;;;1.88;96.67
71476;BME280;59286;59.274;17.974;2022-12-29T00:40:56;99818.63;;;1.81;97.09
71476;BME280;59286;59.274;17.974;2022-12-29T00:43:40;99817.63;;;1.87;97.17
71476;BME280;59286;59.274;17.974;2022-12-29T00:46:23;99818.13;;;1.84;97.62
71476;BME280;59286;59.274;17.974;2022-12-29T00:48:49;99820.72;;;1.84;97.61
71476;BME280;59286;59.274;17.974;2022-12-29T00:51:34;99809.09;;;1.76;98.03
71476;BME280;59286;59.274;17.974;2022-12-29T00:54:00;99805.72;;;1.66;98.03
71476;BME280;59286;59.274;17.974;2022-12-29T00:56:25;99817.63;;;1.77;97.98
71476;BME280;59286;59.274;17.974;2022-12-29T00:58:50;99823.03;;;1.85;98.10
71476;BME280;59286;59.274;17.974;2022-12-29T01:01:16;99820.47;;;1.90;97.45
71476;BME280;59286;59.274;17.974;2022-12-29T01:03:41;99810.66;;;1.87;97.38
71476;BME280;59286;59.274;17.974;2022-12-29T01:06:08;99811.16;;;1.94;97.01
71476;BME280;59286;59.274;17.974;2022-12-29T01:08:35;99810.66;;;1.92;97.47
71476;BME280;59286;59.274;17.974;2022-12-29T01:11:11;99812.97;;;1.94;97.51
71476;BME280;59286;59.274;17.974;2022-12-29T01:13:38;99810.91;;;1.96;97.24
71476;BME280;59286;59.274;17.974;2022-12-29T01:16:05;99808.84;;;1.88;97.65
71476;BME280;59286;59.274;17.974;2022-12-29T01:18:31;99802.38;;;1.90;97.90
71476;BME280;59286;59.274;17.974;2022-12-29T01:21:01;99809.38;;;1.95;98.00
71476;BME280;59286;59.274;17.974;2022-12-29T01:23:28;99804.47;;;1.93;98.00
71476;BME280;59286;59.274;17.974;2022-12-29T01:25:54;99783.53;;;1.90;97.84
71476;BME280;59286;59.274;17.974;2022-12-29T01:28:19;99791.53;;;1.98;97.60
71476;BME280;59286;59.274;17.974;2022-12-29T01:30:44;99791.53;;;1.98;97.56
71476;BME280;59286;59.274;17.974;2022-12-29T01:33:09;99788.97;;;1.98;97.70
71476;BME280;59286;59.274;17.974;2022-12-29T01:35:35;99783.00;;;1.98;97.91
71476;BME280;59286;59.274;17.974;2022-12-29T01:38:00;99769.31;;;1.87;97.92
71476;BME280;59286;59.274;17.974;2022-12-29T01:40:25;99780.16;;;1.89;98.10
71476;BME280;59286;59.274;17.974;2022-12-29T01:42:51;99778.34;;;1.85;98.29
71476;BME280;59286;59.274;17.974;2022-12-29T01:45:17;99778.09;;;1.86;98.63
71476;BME280;59286;59.274;17.974;2022-12-29T01:47:45;99769.31;;;1.87;98.47
71476;BME280;59286;59.274;17.974;2022-12-29T01:50:29;99769.84;;;1.84;98.46
71476;BME280;59286;59.274;17.974;2022-12-29T01:53:03;99767.00;;;1.86;98.89
71476;BME280;59286;59.274;17.974;2022-12-29T01:55:40;99762.09;;;1.89;98.21
71476;BME280;59286;59.274;17.974;2022-12-29T01:58:08;99759.50;;;1.89;98.21
71476;BME280;59286;59.274;17.974;2022-12-29T02:00:37;99763.63;;;1.85;98.26
71476;BME280;59286;59.274;17.974;2022-12-29T02:03:03;99749.66;;;1.76;98.73
71476;BME280;59286;59.274;17.974;2022-12-29T02:05:40;99740.38;;;1.80;98.28
71476;BME280;59286;59.274;17.974;2022-12-29T02:08:07;99751.22;;;1.87;97.92
71476;BME280;59286;59.274;17.974;2022-12-29T02:10:35;99744.53;;;1.86;97.69
71476;BME280;59286;59.274;17.974;2022-12-29T02:13:01;99740.38;;;1.85;98.22
71476;BME280;59286;59.274;17.974;2022-12-29T02:18:25;99737.28;;;1.83;98.75
71476;BME280;59286;59.274;17.974;2022-12-29T02:21:02;99735.72;;;1.82;99.25
71476;BME280;59286;59.274;17.974;2022-12-29T02:23:51;99728.50;;;1.84;98.75
71476;BME280;59286;59.274;17.974;2022-12-29T02:26:34;99729.03;;;1.91;98.81
71476;BME280;59286;59.274;17.974;2022-12-29T02:32:45;99708.34;;;1.86;98.77
71476;BME280;59286;59.274;17.974;2022-12-29T02:38:00;99707.81;;;1.94;99.16
71476;BME280;59286;59.274;17.974;2022-12-29T02:40:48;99708.84;;;1.88;99.22
71476;BME280;59286;59.274;17.974;2022-12-29T02:46:17;99713.78;;;1.90;99.92
71476;BME280;59286;59.274;17.974;2022-12-29T02:48:59;99701.88;;;1.84;100.00
71476;BME280;59286;59.274;17.974;2022-12-29T02:54:03;99695.44;;;1.91;100.00
71476;BME280;59286;59.274;17.974;2022-12-29T02:56:47;99691.81;;;1.92;100.00
71476;BME280;59286;59.274;17.974;2022-12-29T02:59:12;99692.56;;;1.98;100.00
71476;BME280;59286;59.274;17.974;2022-12-29T03:01:45;99692.84;;;2.07;100.00
71476;BME280;59286;59.274;17.974;2022-12-29T03:05:04;99688.41;;;2.07;100.00
71476;BME280;59286;59.274;17.974;2022-12-29T03:07:42;99695.66;;;2.15;100.00
71476;BME280;59286;59.274;17.974;2022-12-29T03:10:40;99692.81;;;2.17;100.00
71476;BME280;59286;59.274;17.974;2022-12-29T03:13:27;99708.84;;;2.24;100.00
71476;BME280;59286;59.274;17.974;2022-12-29T03:16:32;99689.19;;;2.23;100.00
71476;BME280;59286;59.274;17.974;2022-12-29T03:19:22;99700.81;;;2.25;100.00
71476;BME280;59286;59.274;17.974;2022-12-29T03:22:04;99686.84;;;2.26;100.00
71476;BME280;59286;59.274;17.974;2022-12-29T03:24:52;99681.44;;;2.23;100.00
71476;BME280;59286;59.274;17.974;2022-12-29T03:27:24;99683.00;;;2.24;100.00
71476;BME280;59286;59.274;17.974;2022-12-29T03:29:55;99674.97;;;2.25;100.00
71476;BME280;59286;59.274;17.974;2022-12-29T03:32:26;99671.84;;;2.28;100.00
71476;BME280;59286;59.274;17.974;2022-12-29T03:34:53;99661.00;;;2.26;100.00
71476;BME280;59286;59.274;17.974;2022-12-29T03:37:23;99662.28;;;2.29;100.00
71476;BME280;59286;59.274;17.974;2022-12-29T03:39:51;99665.91;;;2.33;100.00
71476;BME280;59286;59.274;17.974;2022-12-29T03:42:19;99669.75;;;2.35;100.00
71476;BME280;59286;59.274;17.974;2022-12-29T03:44:46;99662.53;;;2.37;100.00
71476;BME280;59286;59.274;17.974;2022-12-29T03:47:13;99648.56;;;2.38;100.00
71476;BME280;59286;59.274;17.974;2022-12-29T03:49:38;99652.41;;;2.41;100.00
71476;BME280;59286;59.274;17.974;2022-12-29T03:52:04;99644.44;;;2.42;100.00
71476;BME280;59286;59.274;17.974;2022-12-29T03:54:30;99640.00;;;2.43;100.00
71476;BME280;59286;59.274;17.974;2022-12-29T03:56:56;99639.25;;;2.42;100.00
71476;BME280;59286;59.274;17.974;2022-12-29T03:59:21;99644.16;;;2.44;100.00
71476;BME280;59286;59.274;17.974;2022-12-29T04:01:47;99634.06;;;2.47;100.00
71476;BME280;59286;59.274;17.974;2022-12-29T04:04:12;99628.63;;;2.49;100.00
71476;BME280;59286;59.274;17.974;2022-12-29T04:06:37;99625.00;;;2.50;100.00
71476;BME280;59286;59.274;17.974;2022-12-29T04:09:03;99619.28;;;2.53;100.00
71476;BME280;59286;59.274;17.974;2022-12-29T04:11:28;99615.66;;;2.54;100.00
71476;BME280;59286;59.274;17.974;2022-12-29T04:13:53;99613.84;;;2.54;100.00
71476;BME280;59286;59.274;17.974;2022-12-29T04:16:19;99609.44;;;2.60;100.00
71476;BME280;59286;59.274;17.974;2022-12-29T04:18:44;99609.66;;;2.63;100.00
71476;BME280;59286;59.274;17.974;2022-12-29T04:21:09;99603.75;;;2.63;100.00
71476;BME280;59286;59.274;17.974;2022-12-29T04:23:37;99599.03;;;2.70;100.00
71476;BME280;59286;59.274;17.974;2022-12-29T04:26:04;99608.34;;;2.71;100.00
71476;BME280;59286;59.274;17.974;2022-12-29T04:28:29;99592.81;;;2.71;100.00
71476;BME280;59286;59.274;17.974;2022-12-29T04:30:54;99589.44;;;2.70;100.00
71476;BME280;59286;59.274;17.974;2022-12-29T04:33:20;99592.81;;;2.76;100.00
71476;BME280;59286;59.274;17.974;2022-12-29T04:35:46;99592.25;;;2.79;100.00
71476;BME280;59286;59.274;17.974;2022-12-29T04:38:12;99579.38;;;2.74;100.00
71476;BME280;59286;59.274;17.974;2022-12-29T04:40:38;99573.66;;;2.77;100.00
71476;BME280;59286;59.274;17.974;2022-12-29T04:43:05;99588.09;;;2.83;100.00
71476;BME280;59286;59.274;17.974;2022-12-29T04:45:30;99578.50;;;2.83;100.00
71476;BME280;59286;59.274;17.974;2022-12-29T04:47:56;99574.16;;;2.79;100.00
71476;BME280;59286;59.274;17.974;2022-12-29T04:50:21;99566.63;;;2.82;100.00
71476;BME280;59286;59.274;17.974;2022-12-29T04:52:46;99580.25;;;2.93;100.00
71476;BME280;59286;59.274;17.974;2022-12-29T04:55:12;99575.88;;;2.93;100.00
71476;BME280;59286;59.274;17.974;2022-12-29T04:57:37;99570.97;;;2.92;100.00
71476;BME280;59286;59.274;17.974;2022-12-29T05:00:03;99564.50;;;2.94;100.00
71476;BME280;59286;59.274;17.974;2022-12-29T05:02:29;99562.38;;;2.96;100.00
71476;BME280;59286;59.274;17.974;2022-12-29T05:04:54;99559.53;;;2.98;100.00
71476;BME280;59286;59.274;17.974;2022-12-29T05:07:19;99560.00;;;3.05;100.00
71476;BME280;59286;59.274;17.974;2022-12-29T05:09:45;99568.81;;;3.04;100.00
71476;BME280;59286;59.274;17.974;2022-12-29T05:12:10;99556.13;;;3.03;100.00
71476;BME280;59286;59.274;17.974;2022-12-29T05:14:35;99559.75;;;3.07;100.00
71476;BME280;59286;59.274;17.974;2022-12-29T05:17:01;99546.84;;;3.02;100.00
71476;BME280;59286;59.274;17.974;2022-12-29T05:19:26;99551.19;;;3.06;100.00
71476;BME280;59286;59.274;17.974;2022-12-29T05:21:51;99546.00;;;3.06;100.00
71476;BME280;59286;59.274;17.974;2022-12-29T05:24:17;99541.34;;;3.08;100.00
71476;BME280;59286;59.274;17.974;2022-12-29T05:26:42;99540.81;;;3.11;100.00
71476;BME280;59286;59.274;17.974;2022-12-29T05:29:07;99545.22;;;3.11;100.00
71476;BME280;59286;59.274;17.974;2022-12-29T05:31:33;99544.94;;;3.12;100.00
71476;BME280;59286;59.274;17.974;2022-12-29T05:34:00;99549.59;;;3.15;100.00
71476;BME280;59286;59.274;17.974;2022-12-29T05:36:26;99546.19;;;3.20;100.00
71476;BME280;59286;59.274;17.974;2022-12-29T05:38:51;99545.63;;;3.23;100.00
71476;BME280;59286;59.274;17.974;2022-12-29T05:41:17;99540.72;;;3.21;100.00
71476;BME280;59286;59.274;17.974;2022-12-29T05:43:42;99532.19;;;3.21;100.00
71476;BME280;59286;59.274;17.974;2022-12-29T05:46:08;99528.34;;;3.18;100.00
71476;BME280;59286;59.274;17.974;2022-12-29T05:48:33;99530.38;;;3.21;100.00
71476;BME280;59286;59.274;17.974;2022-12-29T05:50:58;99522.38;;;3.18;100.00
71476;BME280;59286;59.274;17.974;2022-12-29T05:53:23;99524.66;;;3.24;100.00
71476;BME280;59286;59.274;17.974;2022-12-29T05:55:49;99510.38;;;3.27;100.00
71476;BME280;59286;59.274;17.974;2022-12-29T05:58:16;99520.22;;;3.30;100.00
71476;BME280;59286;59.274;17.974;2022-12-29T06:00:41;99513.75;;;3.27;100.00
71476;BME280;59286;59.274;17.974;2022-12-29T06:03:07;99509.28;;;3.33;100.00
71476;BME280;59286;59.274;17.974;2022-12-29T06:05:32;99509.56;;;3.31;100.00
71476;BME280;59286;59.274;17.974;2022-12-29T06:07:58;99502.31;;;3.33;100.00
71476;BME280;59286;59.274;17.974;2022-12-29T06:10:24;99491.94;;;3.33;100.00
71476;BME280;59286;59.274;17.974;2022-12-29T06:12:49;99496.03;;;3.39;100.00
71476;BME280;59286;59.274;17.974;2022-12-29T06:15:15;99495.25;;;3.39;100.00
71476;BME280;59286;59.274;17.974;2022-12-29T06:17:40;99490.88;;;3.39;100.00
71476;BME280;59286;59.274;17.974;2022-12-29T06:20:07;99481.97;;;3.45;100.00
71476;BME280;59286;59.274;17.974;2022-12-29T06:22:32;99481.75;;;3.42;100.00
71476;BME280;59286;59.274;17.974;2022-12-29T06:24:58;99486.16;;;3.41;100.00
71476;BME280;59286;59.274;17.974;2022-12-29T06:27:23;99479.72;;;3.39;100.00
71476;BME280;59286;59.274;17.974;2022-12-29T06:29:48;99477.13;;;3.39;100.00
71476;BME280;59286;59.274;17.974;2022-12-29T06:32:14;99458.00;;;3.35;100.00
71476;BME280;59286;59.274;17.974;2022-12-29T06:34:40;99463.97;;;3.35;100.00
71476;BME280;59286;59.274;17.974;2022-12-29T06:37:06;99474.78;;;3.42;100.00
71476;BME280;59286;59.274;17.974;2022-12-29T06:39:31;99475.78;;;3.41;100.00
71476;BME280;59286;59.274;17.974;2022-12-29T06:41:56;99475.00;;;3.46;100.00
71476;BME280;59286;59.274;17.974;2022-12-29T06:44:22;99475.22;;;3.49;100.00
71476;BME280;59286;59.274;17.974;2022-12-29T06:46:48;99473.19;;;3.46;100.00
71476;BME280;59286;59.274;17.974;2022-12-29T06:49:13;99467.78;;;3.43;100.00
71476;BME280;59286;59.274;17.974;2022-12-29T06:51:39;99467.72;;;3.48;100.00
71476;BME280;59286;59.274;17.974;2022-12-29T06:54:04;99469.81;;;3.46;100.00
71476;BME280;59286;59.274;17.974;2022-12-29T06:56:29;99474.44;;;3.49;100.00
71476;BME280;59286;59.274;17.974;2022-12-29T06:58:55;99475.94;;;3.55;100.00
71476;BME280;59286;59.274;17.974;2022-12-29T07:01:20;99475.16;;;3.54;100.00
71476;BME280;59286;59.274;17.974;2022-12-29T07:03:45;99473.63;;;3.53;100.00
71476;BME280;59286;59.274;17.974;2022-12-29T07:06:11;99466.63;;;3.54;100.00
71476;BME280;59286;59.274;17.974;2022-12-29T07:08:36;99470.75;;;3.55;100.00
71476;BME280;59286;59.274;17.974;2022-12-29T07:11:01;99453.09;;;3.57;100.00
71476;BME280;59286;59.274;17.974;2022-12-29T07:13:27;99447.44;;;3.55;100.00
71476;BME280;59286;59.274;17.974;2022-12-29T07:15:52;99435.03;;;3.52;100.00
71476;BME280;59286;59.274;17.974;2022-12-29T07:18:17;99445.63;;;3.55;100.00
71476;BME280;59286;59.274;17.974;2022-12-29T07:20:43;99437.34;;;3.53;100.00
71476;BME280;59286;59.274;17.974;2022-12-29T07:23:08;99446.06;;;3.62;100.00
71476;BME280;59286;59.274;17.974;2022-12-29T07:25:33;99422.59;;;3.54;100.00
71476;BME280;59286;59.274;17.974;2022-12-29T07:28:01;99429.25;;;3.60;100.00
71476;BME280;59286;59.274;17.974;2022-12-29T07:30:26;99426.88;;;3.63;100.00
71476;BME280;59286;59.274;17.974;2022-12-29T07:32:51;99420.94;;;3.63;100.00
71476;BME280;59286;59.274;17.974;2022-12-29T07:35:17;99412.44;;;3.57;100.00
71476;BME280;59286;59.274;17.974;2022-12-29T07:37:42;99406.69;;;3.60;100.00
71476;BME280;59286;59.274;17.974;2022-12-29T07:40:09;99395.91;;;3.53;100.00
71476;BME280;59286;59.274;17.974;2022-12-29T07:42:35;99413.94;;;3.63;100.00
71476;BME280;59286;59.274;17.974;2022-12-29T07:45:00;99410.34;;;3.59;100.00
71476;BME280;59286;59.274;17.974;2022-12-29T07:47:26;99405.44;;;3.58;100.00
71476;BME280;59286;59.274;17.974;2022-12-29T07:49:51;99396.34;;;3.60;100.00
71476;BME280;59286;59.274;17.974;2022-12-29T07:52:16;99387.84;;;3.55;100.00
71476;BME280;59286;59.274;17.974;2022-12-29T07:54:42;99401.31;;;3.57;100.00
71476;BME280;59286;59.274;17.974;2022-12-29T07:57:07;99397.72;;;3.53;100.00
71476;BME280;59286;59.274;17.974;2022-12-29T07:59:32;99390.94;;;3.57;100.00
71476;BME280;59286;59.274;17.974;2022-12-29T08:01:58;99381.34;;;3.57;100.00
71476;BME280;59286;59.274;17.974;2022-12-29T08:04:23;99370.22;;;3.57;100.00
71476;BME280;59286;59.274;17.974;2022-12-29T08:06:48;99360.63;;;3.57;100.00
71476;BME280;59286;59.274;17.974;2022-12-29T08:09:13;99360.06;;;3.60;100.00
71476;BME280;59286;59.274;17.974;2022-12-29T08:11:39;99355.88;;;3.64;100.00
71476;BME280;59286;59.274;17.974;2022-12-29T08:14:05;99354.13;;;3.60;100.00
71476;BME280;59286;59.274;17.974;2022-12-29T08:16:30;99351.47;;;3.65;100.00
71476;BME280;59286;59.274;17.974;2022-12-29T08:18:56;99345.50;;;3.64;100.00
71476;BME280;59286;59.274;17.974;2022-12-29T08:21:21;99348.09;;;3.64;100.00
71476;BME280;59286;59.274;17.974;2022-12-29T08:23:47;99362.81;;;3.69;100.00
71476;BME280;59286;59.274;17.974;2022-12-29T08:26:13;99352.72;;;3.67;100.00
71476;BME280;59286;59.274;17.974;2022-12-29T08:28:38;99358.19;;;3.66;100.00
71476;BME280;59286;59.274;17.974;2022-12-29T08:31:04;99366.81;;;3.61;100.00
71476;BME280;59286;59.274;17.974;2022-12-29T08:33:30;99365.66;;;3.67;100.00
71476;BME280;59286;59.274;17.974;2022-12-29T08:36:00;99361.34;;;3.63;100.00
71476;BME280;59286;59.274;17.974;2022-12-29T08:38:27;99366.94;;;3.70;100.00
71476;BME280;59286;59.274;17.974;2022-12-29T08:40:52;99360.50;;;3.67;100.00
71476;BME280;59286;59.274;17.974;2022-12-29T08:43:18;99354.78;;;3.70;100.00
71476;BME280;59286;59.274;17.974;2022-12-29T08:45:43;99347.28;;;3.69;100.00
71476;BME280;59286;59.274;17.974;2022-12-29T08:48:08;99346.72;;;3.72;100.00
71476;BME280;59286;59.274;17.974;2022-12-29T08:50:34;99343.63;;;3.70;100.00
71476;BME280;59286;59.274;17.974;2022-12-29T08:52:59;99339.22;;;3.70;100.00
71476;BME280;59286;59.274;17.974;2022-12-29T08:55:24;99344.03;;;3.77;100.00
71476;BME280;59286;59.274;17.974;2022-12-29T08:57:49;99334.53;;;3.72;100.00
71476;BME280;59286;59.274;17.974;2022-12-29T09:00:15;99323.69;;;3.70;100.00
71476;BME280;59286;59.274;17.974;2022-12-29T09:02:40;99317.63;;;3.75;100.00
71476;BME280;59286;59.274;17.974;2022-12-29T09:05:06;99321.50;;;3.77;100.00
71476;BME280;59286;59.274;17.974;2022-12-29T09:07:31;99307.75;;;3.77;100.00
71476;BME280;59286;59.274;17.974;2022-12-29T09:09:57;99294.75;;;3.82;100.00
71476;BME280;59286;59.274;17.974;2022-12-29T09:12:22;99292.66;;;3.84;100.00
71476;BME280;59286;59.274;17.974;2022-12-29T09:14:47;99283.03;;;3.84;100.00
71476;BME280;59286;59.274;17.974;2022-12-29T09:17:13;99289.13;;;3.93;100.00
71476;BME280;59286;59.274;17.974;2022-12-29T09:19:57;99290.75;;;3.89;100.00
71476;BME280;59286;59.274;17.974;2022-12-29T09:22:22;99278.84;;;3.88;100.00
71476;BME280;59286;59.274;17.974;2022-12-29T09:24:47;99282.91;;;3.94;100.00
71476;BME280;59286;59.274;17.974;2022-12-29T09:27:13;99278.75;;;3.93;100.00
71476;BME280;59286;59.274;17.974;2022-12-29T09:29:38;99290.09;;;3.97;100.00
71476;BME280;59286;59.274;17.974;2022-12-29T09:32:04;99272.81;;;3.93;100.00
71476;BME280;59286;59.274;17.974;2022-12-29T09:34:29;99269.06;;;3.99;100.00
71476;BME280;59286;59.274;17.974;2022-12-29T09:36:54;99267.47;;;4.03;100.00
71476;BME280;59286;59.274;17.974;2022-12-29T09:39:21;99257.88;;;4.04;100.00
71476;BME280;59286;59.274;17.974;2022-12-29T09:44:46;99234.19;;;4.10;100.00
71476;BME280;59286;59.274;17.974;2022-12-29T09:47:14;99229.84;;;4.06;100.00
71476;BME280;59286;59.274;17.974;2022-12-29T09:49:49;99232.28;;;4.16;100.00
71476;BME280;59286;59.274;17.974;2022-12-29T09:52:23;99228.63;;;4.17;100.00
71476;BME280;59286;59.274;17.974;2022-12-29T09:54:58;99218.25;;;4.17;100.00
71476;BME280;59286;59.274;17.974;2022-12-29T09:57:36;99203.28;;;4.14;100.00
71476;BME280;59286;59.274;17.974;2022-12-29T10:00:17;99205.47;;;4.20;100.00
71476;BME280;59286;59.274;17.974;2022-12-29T10:02:47;99193.38;;;4.16;100.00
71476;BME280;59286;59.274;17.974;2022-12-29T10:05:22;99198.47;;;4.21;100.00
71476;BME280;59286;59.274;17.974;2022-12-29T10:10:57;99195.97;;;4.29;100.00
71476;BME280;59286;59.274;17.974;2022-12-29T10:13:40;99196.75;;;4.30;100.00
71476;BME280;59286;59.274;17.974;2022-12-29T10:24:13;99174.66;;;4.32;100.00
71476;BME280;59286;59.274;17.974;2022-12-29T10:26:41;99172.06;;;4.32;100.00
71476;BME280;59286;59.274;17.974;2022-12-29T10:29:15;99163.91;;;4.39;100.00
71476;BME280;59286;59.274;17.974;2022-12-29T10:31:55;99158.16;;;4.42;100.00
71476;BME280;59286;59.274;17.974;2022-12-29T10:34:22;99152.97;;;4.42;100.00
71476;BME280;59286;59.274;17.974;2022-12-29T10:40:29;99130.56;;;4.46;100.00
71476;BME280;59286;59.274;17.974;2022-12-29T10:42:57;99138.56;;;4.49;100.00
71476;BME280;59286;59.274;17.974;2022-12-29T10:45:27;99133.06;;;4.51;100.00
71476;BME280;59286;59.274;17.974;2022-12-29T10:48:05;99126.25;;;4.55;100.00
71476;BME280;59286;59.274;17.974;2022-12-29T10:50:33;99117.97;;;4.53;100.00
71476;BME280;59286;59.274;17.974;2022-12-29T10:53:02;99126.25;;;4.55;100.00
71476;BME280;59286;59.274;17.974;2022-12-29T10:55:35;99112.03;;;4.52;100.00
71476;BME280;59286;59.274;17.974;2022-12-29T10:58:04;99103.81;;;4.59;100.00
71476;BME280;59286;59.274;17.974;2022-12-29T11:00:31;99106.16;;;4.60;100.00
71476;BME280;59286;59.274;17.974;2022-12-29T11:05:57;99101.16;;;4.64;100.00
71476;BME280;59286;59.274;17.974;2022-12-29T11:08:26;99099.31;;;4.64;100.00
71476;BME280;59286;59.274;17.974;2022-12-29T11:11:02;99093.19;;;4.60;100.00
71476;BME280;59286;59.274;17.974;2022-12-29T11:13:30;99094.09;;;4.64;100.00
71476;BME280;59286;59.274;17.974;2022-12-29T11:15:55;99082.97;;;4.64;100.00
71476;BME280;59286;59.274;17.974;2022-12-29T11:18:26;99095.25;;;4.72;100.00
71476;BME280;59286;59.274;17.974;2022-12-29T11:20:57;99081.53;;;4.71;100.00
71476;BME280;59286;59.274;17.974;2022-12-29T11:23:37;99081.72;;;4.75;100.00
71476;BME280;59286;59.274;17.974;2022-12-29T11:26:16;99072.38;;;4.74;100.00
71476;BME280;59286;59.274;17.974;2022-12-29T11:31:55;99063.06;;;4.73;100.00
71476;BME280;59286;59.274;17.974;2022-12-29T11:34:26;99059.88;;;4.76;100.00
71476;BME280;59286;59.274;17.974;2022-12-29T11:37:04;99048.75;;;4.75;100.00
71476;BME280;59286;59.274;17.974;2022-12-29T11:39:52;99047.38;;;4.78;100.00
71476;BME280;59286;59.274;17.974;2022-12-29T11:42:36;99042.78;;;4.75;100.00
71476;BME280;59286;59.274;17.974;2022-12-29T11:45:23;99033.16;;;4.75;100.00
71476;BME280;59286;59.274;17.974;2022-12-29T11:47:52;99024.78;;;4.78;100.00
71476;BME280;59286;59.274;17.974;2022-12-29T11:50:21;99025.09;;;4.77;100.00
71476;BME280;59286;59.274;17.974;2022-12-29T11:52:48;99022.78;;;4.75;100.00
71476;BME280;59286;59.274;17.974;2022-12-29T11:55:21;99011.81;;;4.78;100.00
71476;BME280;59286;59.274;17.974;2022-12-29T11:57:50;99008.25;;;4.74;100.00
71476;BME280;59286;59.274;17.974;2022-12-29T12:00:19;98996.06;;;4.75;100.00
71476;BME280;59286;59.274;17.974;2022-12-29T12:05:50;98997.00;;;4.79;100.00
71476;BME280;59286;59.274;17.974;2022-12-29T12:08:55;98989.22;;;4.79;100.00
71476;BME280;59286;59.274;17.974;2022-12-29T12:11:26;98995.47;;;4.78;100.00
71476;BME280;59286;59.274;17.974;2022-12-29T12:14:13;98981.53;;;4.74;100.00
71476;BME280;59286;59.274;17.974;2022-12-29T12:16:46;98962.03;;;4.76;100.00
71476;BME280;59286;59.274;17.974;2022-12-29T12:19:31;98972.59;;;4.80;100.00
71476;BME280;59286;59.274;17.974;2022-12-29T12:22:07;98965.09;;;4.78;100.00
71476;BME280;59286;59.274;17.974;2022-12-29T12:24:49;98962.97;;;4.80;100.00
71476;BME280;59286;59.274;17.974;2022-12-29T12:27:24;98960.50;;;4.75;100.00
71476;BME280;59286;59.274;17.974;2022-12-29T12:41:24;98952.34;;;4.90;100.00
71476;BME280;59286;59.274;17.974;2022-12-29T12:44:07;98954.28;;;4.85;100.00
71476;BME280;59286;59.274;17.974;2022-12-29T12:57:40;98952.63;;;4.89;100.00
71476;BME280;59286;59.274;17.974;2022-12-29T13:00:13;98944.84;;;4.89;100.00
71476;BME280;59286;59.274;17.974;2022-12-29T13:06:18;98939.94;;;4.87;100.00
71476;BME280;59286;59.274;17.974;2022-12-29T13:17:47;98920.84;;;4.83;100.00
71476;BME280;59286;59.274;17.974;2022-12-29T13:26:42;98923.75;;;4.82;100.00
71476;BME280;59286;59.274;17.974;2022-12-29T13:38:21;98896.13;;;4.86;100.00
71476;BME280;59286;59.274;17.974;2022-12-29T13:40:56;98892.00;;;4.85;100.00
71476;BME280;59286;59.274;17.974;2022-12-29T13:43:24;98884.81;;;4.82;100.00
71476;BME280;59286;59.274;17.974;2022-12-29T13:46:06;98890.34;;;4.89;100.00
71476;BME280;59286;59.274;17.974;2022-12-29T13:48:40;98896.59;;;4.88;100.00
71476;BME280;59286;59.274;17.974;2022-12-29T13:51:09;98901.03;;;4.87;100.00
71476;BME280;59286;59.274;17.974;2022-12-29T13:56:35;98890.63;;;4.87;100.00
71476;BME280;59286;59.274;17.974;2022-12-29T14:02:07;98885.91;;;4.89;100.00
71476;BME280;59286;59.274;17.974;2022-12-29T14:04:35;98882.38;;;4.85;100.00
71476;BME280;59286;59.274;17.974;2022-12-29T14:07:11;98890.03;;;4.90;100.00
71476;BME280;59286;59.274;17.974;2022-12-29T14:09:43;98875.22;;;4.91;100.00
71476;BME280;59286;59.274;17.974;2022-12-29T14:12:38;98870.97;;;4.95;100.00
71476;BME280;59286;59.274;17.974;2022-12-29T14:17:36;98866.09;;;4.93;100.00
71476;BME280;59286;59.274;17.974;2022-12-29T14:20:04;98859.06;;;4.94;100.00
71476;BME280;59286;59.274;17.974;2022-12-29T14:22:32;98862.59;;;4.98;100.00
71476;BME280;59286;59.274;17.974;2022-12-29T14:24:58;98859.72;;;5.00;100.00
71476;BME280;59286;59.274;17.974;2022-12-29T14:29:54;98858.31;;;5.02;100.00
71476;BME280;59286;59.274;17.974;2022-12-29T14:34:45;98846.72;;;5.00;100.00
71476;BME280;59286;59.274;17.974;2022-12-29T14:39:48;98847.78;;;4.99;100.00
71476;BME280;59286;59.274;17.974;2022-12-29T14:42:15;98852.09;;;5.03;100.00
71476;BME280;59286;59.274;17.974;2022-12-29T14:44:51;98855.63;;;5.07;100.00
71476;BME280;59286;59.274;17.974;2022-12-29T14:47:31;98853.59;;;5.04;100.00
71476;BME280;59286;59.274;17.974;2022-12-29T14:50:04;98848.41;;;5.04;100.00
71476;BME280;59286;59.274;17.974;2022-12-29T14:52:31;98852.09;;;5.03;100.00
71476;BME280;59286;59.274;17.974;2022-12-29T14:58:00;98846.75;;;5.08;100.00